sensor_id;sensor_type;location;lat;lon;timestamp;pressure;altitude;pressure_sealevel;temperature;humidity
79671;BME280;69137;50.878;8.050;2024-03-07T00:02:16;98915.28;;;1.36;92.72
79671;BME280;69137;50.878;8.050;2024-03-07T00:04:42;98914.66;;;1.34;91.99
79671;BME280;69137;50.878;8.050;2024-03-07T00:07:08;98908.63;;;1.31;91.08
79671;BME280;69137;50.878;8.050;2024-03-07T00:09:34;98912.22;;;1.17;92.00
79671;BME280;69137;50.878;8.050;2024-03-07T00:12:03;98909.53;;;1.17;92.02
79671;BME280;69137;50.878;8.050;2024-03-07T00:14:28;98911.19;;;1.18;91.51
79671;BME280;69137;50.878;8.050;2024-03-07T00:16:57;98912.97;;;1.11;91.94
79671;BME280;69137;50.878;8.050;2024-03-07T00:19:24;98925.22;;;1.14;91.92
79671;BME280;69137;50.878;8.050;2024-03-07T00:21:52;98921.44;;;1.08;91.90
79671;BME280;69137;50.878;8.050;2024-03-07T00:24:18;98924.91;;;1.02;91.48
79671;BME280;69137;50.878;8.050;2024-03-07T00:26:44;98919.94;;;0.99;92.38
79671;BME280;69137;50.878;8.050;2024-03-07T00:29:09;98920.50;;;0.94;92.71
79671;BME280;69137;50.878;8.050;2024-03-07T00:31:35;98926.97;;;1.00;92.83
79671;BME280;69137;50.878;8.050;2024-03-07T00:34:01;98923.88;;;1.03;92.35
79671;BME280;69137;50.878;8.050;2024-03-07T00:36:26;98917.22;;;0.99;92.35
79671;BME280;69137;50.878;8.050;2024-03-07T00:38:52;98916.38;;;0.98;92.21
79671;BME280;69137;50.878;8.050;2024-03-07T00:41:17;98906.22;;;0.94;92.92
79671;BME280;69137;50.878;8.050;2024-03-07T00:43:43;98901.34;;;1.04;92.65
79671;BME280;69137;50.878;8.050;2024-03-07T00:46:08;98913.59;;;1.06;92.39
79671;BME280;69137;50.878;8.050;2024-03-07T00:48:35;98904.28;;;1.09;92.29
79671;BME280;69137;50.878;8.050;2024-03-07T00:51:01;98906.91;;;1.02;92.02
79671;BME280;69137;50.878;8.050;2024-03-07T00:53:26;98903.97;;;0.97;92.79
79671;BME280;69137;50.878;8.050;2024-03-07T00:55:51;98896.59;;;0.84;93.37
79671;BME280;69137;50.878;8.050;2024-03-07T00:58:17;98902.22;;;0.90;93.71
79671;BME280;69137;50.878;8.050;2024-03-07T01:00:43;98898.75;;;0.96;93.61
79671;BME280;69137;50.878;8.050;2024-03-07T01:03:09;98896.06;;;0.96;93.30
79671;BME280;69137;50.878;8.050;2024-03-07T01:05:36;98896.44;;;0.93;93.55
79671;BME280;69137;50.878;8.050;2024-03-07T01:08:02;98908.25;;;0.92;93.47
79671;BME280;69137;50.878;8.050;2024-03-07T01:10:27;98902.13;;;0.83;93.80
79671;BME280;69137;50.878;8.050;2024-03-07T01:12:53;98899.16;;;0.93;93.71
79671;BME280;69137;50.878;8.050;2024-03-07T01:15:23;98900.19;;;0.92;94.26
79671;BME280;69137;50.878;8.050;2024-03-07T01:17:48;98899.53;;;0.90;94.28
79671;BME280;69137;50.878;8.050;2024-03-07T01:20:13;98894.28;;;0.81;94.71
79671;BME280;69137;50.878;8.050;2024-03-07T01:22:39;98885.75;;;0.78;95.14
79671;BME280;69137;50.878;8.050;2024-03-07T01:25:05;98893.63;;;0.79;95.30
79671;BME280;69137;50.878;8.050;2024-03-07T01:27:31;98897.81;;;0.82;95.26
79671;BME280;69137;50.878;8.050;2024-03-07T01:29:56;98892.34;;;0.75;94.70
79671;BME280;69137;50.878;8.050;2024-03-07T01:32:22;98893.25;;;0.82;94.53
79671;BME280;69137;50.878;8.050;2024-03-07T01:34:47;98891.28;;;0.91;94.30
79671;BME280;69137;50.878;8.050;2024-03-07T01:37:13;98894.59;;;0.93;93.81
79671;BME280;69137;50.878;8.050;2024-03-07T01:39:38;98888.22;;;0.94;93.34
79671;BME280;69137;50.878;8.050;2024-03-07T01:42:03;98888.59;;;0.91;93.55
79671;BME280;69137;50.878;8.050;2024-03-07T01:44:29;98890.06;;;0.94;93.48
79671;BME280;69137;50.878;8.050;2024-03-07T01:46:57;98888.78;;;0.90;93.71
79671;BME280;69137;50.878;8.050;2024-03-07T01:49:23;98882.19;;;0.92;93.77
79671;BME280;69137;50.878;8.050;2024-03-07T01:51:48;98880.97;;;0.95;93.61
79671;BME280;69137;50.878;8.050;2024-03-07T01:54:13;98885.13;;;0.97;93.72
79671;BME280;69137;50.878;8.050;2024-03-07T01:56:39;98880.38;;;0.99;93.84
79671;BME280;69137;50.878;8.050;2024-03-07T01:59:06;98879.44;;;1.07;93.69
79671;BME280;69137;50.878;8.050;2024-03-07T02:01:32;98879.03;;;1.10;93.26
79671;BME280;69137;50.878;8.050;2024-03-07T02:03:58;98870.06;;;1.03;93.96
79671;BME280;69137;50.878;8.050;2024-03-07T02:06:24;98870.53;;;1.06;93.94
79671;BME280;69137;50.878;8.050;2024-03-07T02:08:50;98874.19;;;0.99;93.94
79671;BME280;69137;50.878;8.050;2024-03-07T02:11:16;98862.56;;;0.98;94.75
79671;BME280;69137;50.878;8.050;2024-03-07T02:13:41;98871.50;;;0.99;95.70
79671;BME280;69137;50.878;8.050;2024-03-07T02:16:07;98874.22;;;1.05;96.05
79671;BME280;69137;50.878;8.050;2024-03-07T02:18:35;98866.16;;;1.05;96.07
79671;BME280;69137;50.878;8.050;2024-03-07T02:21:06;98871.78;;;1.11;96.15
79671;BME280;69137;50.878;8.050;2024-03-07T02:23:31;98867.44;;;1.09;95.58
79671;BME280;69137;50.878;8.050;2024-03-07T02:25:57;98861.22;;;1.09;95.18
79671;BME280;69137;50.878;8.050;2024-03-07T02:28:22;98858.75;;;1.14;95.48
79671;BME280;69137;50.878;8.050;2024-03-07T02:30:47;98867.47;;;1.16;95.84
79671;BME280;69137;50.878;8.050;2024-03-07T02:33:13;98861.47;;;1.14;96.08
79671;BME280;69137;50.878;8.050;2024-03-07T02:35:38;98856.56;;;1.24;95.43
79671;BME280;69137;50.878;8.050;2024-03-07T02:38:04;98855.56;;;1.25;95.63
79671;BME280;69137;50.878;8.050;2024-03-07T02:40:30;98849.78;;;1.28;95.59
79671;BME280;69137;50.878;8.050;2024-03-07T02:42:56;98852.06;;;1.31;95.12
79671;BME280;69137;50.878;8.050;2024-03-07T02:45:23;98856.00;;;1.29;95.33
79671;BME280;69137;50.878;8.050;2024-03-07T02:47:49;98851.44;;;1.29;94.89
79671;BME280;69137;50.878;8.050;2024-03-07T02:50:14;98844.91;;;1.39;94.56
79671;BME280;69137;50.878;8.050;2024-03-07T02:52:40;98849.47;;;1.45;94.22
79671;BME280;69137;50.878;8.050;2024-03-07T02:55:06;98855.09;;;1.43;93.66
79671;BME280;69137;50.878;8.050;2024-03-07T02:57:35;98839.31;;;1.40;93.83
79671;BME280;69137;50.878;8.050;2024-03-07T03:00:00;98843.59;;;1.35;94.10
79671;BME280;69137;50.878;8.050;2024-03-07T03:02:26;98844.66;;;1.34;94.91
79671;BME280;69137;50.878;8.050;2024-03-07T03:04:51;98840.31;;;1.33;95.05
79671;BME280;69137;50.878;8.050;2024-03-07T03:07:16;98844.78;;;1.25;95.43
79671;BME280;69137;50.878;8.050;2024-03-07T03:09:42;98837.22;;;1.36;95.42
79671;BME280;69137;50.878;8.050;2024-03-07T03:12:09;98834.53;;;1.36;94.65
79671;BME280;69137;50.878;8.050;2024-03-07T03:14:34;98835.41;;;1.43;94.54
79671;BME280;69137;50.878;8.050;2024-03-07T03:16:59;98827.28;;;1.36;94.44
79671;BME280;69137;50.878;8.050;2024-03-07T03:19:25;98831.38;;;1.32;94.71
79671;BME280;69137;50.878;8.050;2024-03-07T03:21:51;98824.72;;;1.28;95.01
79671;BME280;69137;50.878;8.050;2024-03-07T03:24:17;98828.00;;;1.23;95.08
79671;BME280;69137;50.878;8.050;2024-03-07T03:26:42;98823.41;;;1.17;94.73
79671;BME280;69137;50.878;8.050;2024-03-07T03:29:08;98831.84;;;1.14;95.10
79671;BME280;69137;50.878;8.050;2024-03-07T03:31:34;98828.94;;;1.09;94.83
79671;BME280;69137;50.878;8.050;2024-03-07T03:34:00;98831.16;;;1.05;94.57
79671;BME280;69137;50.878;8.050;2024-03-07T03:36:26;98830.88;;;0.94;95.21
79671;BME280;69137;50.878;8.050;2024-03-07T03:38:51;98828.19;;;0.94;95.49
79671;BME280;69137;50.878;8.050;2024-03-07T03:41:16;98825.25;;;0.89;94.65
79671;BME280;69137;50.878;8.050;2024-03-07T03:43:42;98820.81;;;0.81;94.47
79671;BME280;69137;50.878;8.050;2024-03-07T03:46:10;98819.91;;;0.74;94.49
79671;BME280;69137;50.878;8.050;2024-03-07T03:48:35;98820.75;;;0.74;94.61
79671;BME280;69137;50.878;8.050;2024-03-07T03:51:01;98823.81;;;0.71;94.62
79671;BME280;69137;50.878;8.050;2024-03-07T03:53:26;98824.00;;;0.70;94.83
79671;BME280;69137;50.878;8.050;2024-03-07T03:55:51;98823.25;;;0.76;94.21
79671;BME280;69137;50.878;8.050;2024-03-07T03:58:16;98821.91;;;0.86;94.04
79671;BME280;69137;50.878;8.050;2024-03-07T04:00:42;98811.84;;;0.74;94.94
79671;BME280;69137;50.878;8.050;2024-03-07T04:03:07;98819.03;;;0.67;94.62
79671;BME280;69137;50.878;8.050;2024-03-07T04:05:32;98812.28;;;0.56;94.79
79671;BME280;69137;50.878;8.050;2024-03-07T04:07:58;98812.47;;;0.54;94.81
79671;BME280;69137;50.878;8.050;2024-03-07T04:10:23;98814.28;;;0.47;94.34
79671;BME280;69137;50.878;8.050;2024-03-07T04:12:49;98813.69;;;0.52;94.52
79671;BME280;69137;50.878;8.050;2024-03-07T04:15:15;98813.34;;;0.55;93.86
79671;BME280;69137;50.878;8.050;2024-03-07T04:17:43;98803.72;;;0.46;95.02
79671;BME280;69137;50.878;8.050;2024-03-07T04:20:11;98811.19;;;0.29;95.04
79671;BME280;69137;50.878;8.050;2024-03-07T04:22:38;98810.84;;;0.17;95.53
79671;BME280;69137;50.878;8.050;2024-03-07T04:25:07;98806.84;;;0.13;95.70
79671;BME280;69137;50.878;8.050;2024-03-07T04:27:33;98816.72;;;0.06;95.61
79671;BME280;69137;50.878;8.050;2024-03-07T04:30:02;98816.34;;;0.09;95.96
79671;BME280;69137;50.878;8.050;2024-03-07T04:32:28;98815.50;;;0.08;96.34
79671;BME280;69137;50.878;8.050;2024-03-07T04:34:54;98817.59;;;0.13;95.82
79671;BME280;69137;50.878;8.050;2024-03-07T04:37:22;98813.16;;;0.05;95.69
79671;BME280;69137;50.878;8.050;2024-03-07T04:39:47;98812.06;;;0.14;95.14
79671;BME280;69137;50.878;8.050;2024-03-07T04:42:12;98817.25;;;0.16;94.69
79671;BME280;69137;50.878;8.050;2024-03-07T04:44:38;98815.56;;;0.15;95.24
79671;BME280;69137;50.878;8.050;2024-03-07T04:47:04;98809.38;;;0.14;95.34
79671;BME280;69137;50.878;8.050;2024-03-07T04:49:31;98815.94;;;0.12;94.85
79671;BME280;69137;50.878;8.050;2024-03-07T04:51:57;98816.72;;;0.06;94.84
79671;BME280;69137;50.878;8.050;2024-03-07T04:54:24;98818.09;;;0.02;95.83
79671;BME280;69137;50.878;8.050;2024-03-07T04:56:51;98823.47;;;0.02;96.74
79671;BME280;69137;50.878;8.050;2024-03-07T04:59:18;98827.47;;;-0.09;96.07
79671;BME280;69137;50.878;8.050;2024-03-07T05:01:44;98819.03;;;-0.06;95.88
79671;BME280;69137;50.878;8.050;2024-03-07T05:04:12;98823.84;;;-0.02;95.71
79671;BME280;69137;50.878;8.050;2024-03-07T05:06:38;98827.47;;;0.06;94.90
79671;BME280;69137;50.878;8.050;2024-03-07T05:09:04;98834.59;;;-0.02;94.68
79671;BME280;69137;50.878;8.050;2024-03-07T05:11:30;98816.44;;;0.01;93.78
79671;BME280;69137;50.878;8.050;2024-03-07T05:13:56;98818.47;;;-0.02;93.33
79671;BME280;69137;50.878;8.050;2024-03-07T05:16:26;98826.72;;;-0.03;93.21
79671;BME280;69137;50.878;8.050;2024-03-07T05:18:52;98815.63;;;-0.15;93.13
79671;BME280;69137;50.878;8.050;2024-03-07T05:21:18;98830.34;;;-0.11;93.80
79671;BME280;69137;50.878;8.050;2024-03-07T05:24:02;98815.25;;;-0.12;94.49
79671;BME280;69137;50.878;8.050;2024-03-07T05:26:28;98820.91;;;-0.07;94.62
79671;BME280;69137;50.878;8.050;2024-03-07T05:29:02;98813.78;;;-0.14;94.57
79671;BME280;69137;50.878;8.050;2024-03-07T05:31:31;98826.00;;;-0.12;94.29
79671;BME280;69137;50.878;8.050;2024-03-07T05:33:59;98813.13;;;-0.16;94.23
79671;BME280;69137;50.878;8.050;2024-03-07T05:36:24;98819.41;;;-0.24;93.50
79671;BME280;69137;50.878;8.050;2024-03-07T05:38:49;98821.09;;;-0.38;94.83
79671;BME280;69137;50.878;8.050;2024-03-07T05:41:15;98817.13;;;-0.42;95.44
79671;BME280;69137;50.878;8.050;2024-03-07T05:43:40;98817.59;;;-0.53;95.89
79671;BME280;69137;50.878;8.050;2024-03-07T05:46:06;98824.53;;;-0.59;96.33
79671;BME280;69137;50.878;8.050;2024-03-07T05:48:36;98814.44;;;-0.57;96.47
79671;BME280;69137;50.878;8.050;2024-03-07T05:51:02;98809.16;;;-0.50;96.24
79671;BME280;69137;50.878;8.050;2024-03-07T05:53:27;98810.06;;;-0.58;95.01
79671;BME280;69137;50.878;8.050;2024-03-07T05:55:53;98814.72;;;-0.52;94.38
79671;BME280;69137;50.878;8.050;2024-03-07T05:58:19;98820.09;;;-0.52;94.15
79671;BME280;69137;50.878;8.050;2024-03-07T06:00:47;98816.00;;;-0.48;94.77
79671;BME280;69137;50.878;8.050;2024-03-07T06:03:18;98826.94;;;-0.49;93.48
79671;BME280;69137;50.878;8.050;2024-03-07T06:05:47;98821.00;;;-0.45;93.51
79671;BME280;69137;50.878;8.050;2024-03-07T06:08:17;98817.50;;;-0.45;94.62
79671;BME280;69137;50.878;8.050;2024-03-07T06:10:46;98818.69;;;-0.48;95.91
79671;BME280;69137;50.878;8.050;2024-03-07T06:13:13;98830.84;;;-0.52;96.46
79671;BME280;69137;50.878;8.050;2024-03-07T06:15:39;98826.00;;;-0.56;96.73
79671;BME280;69137;50.878;8.050;2024-03-07T06:18:05;98826.00;;;-0.56;95.77
79671;BME280;69137;50.878;8.050;2024-03-07T06:20:33;98814.50;;;-0.65;95.06
79671;BME280;69137;50.878;8.050;2024-03-07T06:23:00;98820.34;;;-0.61;94.99
79671;BME280;69137;50.878;8.050;2024-03-07T06:25:28;98820.28;;;-0.53;94.81
79671;BME280;69137;50.878;8.050;2024-03-07T06:28:05;98824.44;;;-0.51;94.68
79671;BME280;69137;50.878;8.050;2024-03-07T06:30:38;98821.75;;;-0.51;94.09
79671;BME280;69137;50.878;8.050;2024-03-07T06:33:05;98815.09;;;-0.40;94.44
79671;BME280;69137;50.878;8.050;2024-03-07T06:35:30;98816.13;;;-0.41;94.65
79671;BME280;69137;50.878;8.050;2024-03-07T06:37:55;98811.47;;;-0.32;94.78
79671;BME280;69137;50.878;8.050;2024-03-07T06:40:21;98807.41;;;-0.28;94.63
79671;BME280;69137;50.878;8.050;2024-03-07T06:42:47;98812.84;;;-0.22;95.42
79671;BME280;69137;50.878;8.050;2024-03-07T06:45:13;98812.75;;;-0.13;95.35
79671;BME280;69137;50.878;8.050;2024-03-07T06:47:38;98809.59;;;-0.17;95.31
79671;BME280;69137;50.878;8.050;2024-03-07T06:50:04;98811.34;;;-0.09;94.99
79671;BME280;69137;50.878;8.050;2024-03-07T06:52:29;98799.59;;;-0.08;94.38
79671;BME280;69137;50.878;8.050;2024-03-07T06:54:54;98793.84;;;-0.05;94.55
79671;BME280;69137;50.878;8.050;2024-03-07T06:57:20;98797.66;;;-0.14;95.66
79671;BME280;69137;50.878;8.050;2024-03-07T06:59:46;98804.78;;;-0.07;96.31
79671;BME280;69137;50.878;8.050;2024-03-07T07:02:11;98811.81;;;-0.06;96.40
79671;BME280;69137;50.878;8.050;2024-03-07T07:04:36;98814.31;;;-0.04;97.10
79671;BME280;69137;50.878;8.050;2024-03-07T07:07:10;98816.25;;;0.02;97.06
79671;BME280;69137;50.878;8.050;2024-03-07T07:09:38;98813.53;;;0.17;96.76
79671;BME280;69137;50.878;8.050;2024-03-07T07:12:03;98812.16;;;0.21;96.72
79671;BME280;69137;50.878;8.050;2024-03-07T07:14:29;98803.97;;;0.29;96.25
79671;BME280;69137;50.878;8.050;2024-03-07T07:16:55;98812.56;;;0.39;96.11
79671;BME280;69137;50.878;8.050;2024-03-07T07:19:21;98802.50;;;0.48;96.05
79671;BME280;69137;50.878;8.050;2024-03-07T07:21:47;98798.03;;;0.55;95.79
79671;BME280;69137;50.878;8.050;2024-03-07T07:24:14;98794.13;;;0.58;95.72
79671;BME280;69137;50.878;8.050;2024-03-07T07:26:40;98793.34;;;0.64;95.58
79671;BME280;69137;50.878;8.050;2024-03-07T07:29:05;98784.13;;;0.73;95.94
79671;BME280;69137;50.878;8.050;2024-03-07T07:31:30;98786.59;;;0.75;96.02
79671;BME280;69137;50.878;8.050;2024-03-07T07:33:57;98771.53;;;0.80;95.78
79671;BME280;69137;50.878;8.050;2024-03-07T07:36:22;98779.44;;;0.82;95.39
79671;BME280;69137;50.878;8.050;2024-03-07T07:38:48;98778.28;;;0.91;95.53
79671;BME280;69137;50.878;8.050;2024-03-07T07:41:13;98780.00;;;0.99;95.59
79671;BME280;69137;50.878;8.050;2024-03-07T07:43:40;98783.56;;;1.06;94.94
79671;BME280;69137;50.878;8.050;2024-03-07T07:46:05;98779.97;;;1.27;94.20
79671;BME280;69137;50.878;8.050;2024-03-07T07:48:31;98776.91;;;1.30;94.40
79671;BME280;69137;50.878;8.050;2024-03-07T07:50:56;98789.97;;;1.33;93.96
79671;BME280;69137;50.878;8.050;2024-03-07T07:53:21;98774.88;;;1.39;93.91
79671;BME280;69137;50.878;8.050;2024-03-07T07:55:46;98783.59;;;1.41;93.32
79671;BME280;69137;50.878;8.050;2024-03-07T07:58:14;98776.53;;;1.40;92.62
79671;BME280;69137;50.878;8.050;2024-03-07T08:00:39;98782.13;;;1.38;93.05
79671;BME280;69137;50.878;8.050;2024-03-07T08:03:05;98784.00;;;1.38;93.60
79671;BME280;69137;50.878;8.050;2024-03-07T08:05:35;98778.25;;;1.47;94.07
79671;BME280;69137;50.878;8.050;2024-03-07T08:08:05;98778.06;;;1.56;93.97
79671;BME280;69137;50.878;8.050;2024-03-07T08:10:32;98783.09;;;1.65;93.56
79671;BME280;69137;50.878;8.050;2024-03-07T08:12:59;98784.16;;;1.71;93.24
79671;BME280;69137;50.878;8.050;2024-03-07T08:15:25;98781.53;;;1.78;93.21
79671;BME280;69137;50.878;8.050;2024-03-07T08:17:53;98780.34;;;1.87;93.36
79671;BME280;69137;50.878;8.050;2024-03-07T08:20:21;98782.44;;;2.05;97.66
79671;BME280;69137;50.878;8.050;2024-03-07T08:22:48;98780.22;;;2.15;94.13
79671;BME280;69137;50.878;8.050;2024-03-07T08:25:16;98778.38;;;2.22;93.05
79671;BME280;69137;50.878;8.050;2024-03-07T08:27:45;98787.31;;;2.36;92.40
79671;BME280;69137;50.878;8.050;2024-03-07T08:30:11;98780.09;;;2.43;91.29
79671;BME280;69137;50.878;8.050;2024-03-07T08:32:41;98777.84;;;2.67;89.16
79671;BME280;69137;50.878;8.050;2024-03-07T08:35:08;98776.41;;;2.71;88.95
79671;BME280;69137;50.878;8.050;2024-03-07T08:37:38;98768.31;;;2.91;88.35
79671;BME280;69137;50.878;8.050;2024-03-07T08:40:04;98777.25;;;3.04;88.87
79671;BME280;69137;50.878;8.050;2024-03-07T08:42:32;98768.94;;;3.19;85.55
79671;BME280;69137;50.878;8.050;2024-03-07T08:44:58;98774.13;;;3.27;84.88
79671;BME280;69137;50.878;8.050;2024-03-07T08:47:24;98765.16;;;3.40;85.23
79671;BME280;69137;50.878;8.050;2024-03-07T08:49:49;98761.59;;;3.46;84.12
79671;BME280;69137;50.878;8.050;2024-03-07T08:52:15;98770.09;;;3.57;83.71
79671;BME280;69137;50.878;8.050;2024-03-07T08:54:40;98759.06;;;3.65;82.62
79671;BME280;69137;50.878;8.050;2024-03-07T08:57:05;98758.88;;;3.66;82.82
79671;BME280;69137;50.878;8.050;2024-03-07T08:59:32;98760.50;;;3.67;82.93
79671;BME280;69137;50.878;8.050;2024-03-07T09:01:58;98756.78;;;3.68;83.24
79671;BME280;69137;50.878;8.050;2024-03-07T09:04:26;98758.81;;;3.73;81.70
79671;BME280;69137;50.878;8.050;2024-03-07T09:06:52;98757.94;;;3.86;81.88
79671;BME280;69137;50.878;8.050;2024-03-07T09:09:17;98762.91;;;3.96;81.96
79671;BME280;69137;50.878;8.050;2024-03-07T09:11:44;98752.72;;;3.98;82.38
79671;BME280;69137;50.878;8.050;2024-03-07T09:14:09;98747.88;;;4.06;81.68
79671;BME280;69137;50.878;8.050;2024-03-07T09:16:35;98760.94;;;4.16;81.75
79671;BME280;69137;50.878;8.050;2024-03-07T09:19:01;98751.34;;;4.20;82.36
79671;BME280;69137;50.878;8.050;2024-03-07T09:21:26;98754.66;;;4.22;81.94
79671;BME280;69137;50.878;8.050;2024-03-07T09:23:52;98747.97;;;4.31;82.08
79671;BME280;69137;50.878;8.050;2024-03-07T09:26:17;98748.34;;;4.35;81.15
79671;BME280;69137;50.878;8.050;2024-03-07T09:28:42;98747.44;;;4.48;80.66
79671;BME280;69137;50.878;8.050;2024-03-07T09:31:07;98741.84;;;4.49;80.71
79671;BME280;69137;50.878;8.050;2024-03-07T09:33:33;98741.84;;;4.43;80.17
79671;BME280;69137;50.878;8.050;2024-03-07T09:35:59;98745.56;;;4.48;80.37
79671;BME280;69137;50.878;8.050;2024-03-07T09:38:24;98735.16;;;4.52;81.42
79671;BME280;69137;50.878;8.050;2024-03-07T09:40:50;98738.13;;;4.69;81.40
79671;BME280;69137;50.878;8.050;2024-03-07T09:43:18;98738.72;;;4.77;80.43
79671;BME280;69137;50.878;8.050;2024-03-07T09:45:45;98732.75;;;4.94;79.43
79671;BME280;69137;50.878;8.050;2024-03-07T09:48:12;98738.31;;;4.99;79.76
79671;BME280;69137;50.878;8.050;2024-03-07T09:50:38;98740.22;;;4.98;80.26
79671;BME280;69137;50.878;8.050;2024-03-07T09:53:04;98736.16;;;5.08;79.91
79671;BME280;69137;50.878;8.050;2024-03-07T09:55:30;98738.03;;;5.07;79.57
79671;BME280;69137;50.878;8.050;2024-03-07T09:57:57;98750.19;;;5.23;79.63
79671;BME280;69137;50.878;8.050;2024-03-07T10:00:24;98752.13;;;5.16;78.72
79671;BME280;69137;50.878;8.050;2024-03-07T10:02:57;98744.41;;;5.19;78.62
79671;BME280;69137;50.878;8.050;2024-03-07T10:05:26;98744.31;;;5.26;78.87
79671;BME280;69137;50.878;8.050;2024-03-07T10:07:52;98751.72;;;5.37;78.79
79671;BME280;69137;50.878;8.050;2024-03-07T10:10:18;98747.44;;;5.48;79.07
79671;BME280;69137;50.878;8.050;2024-03-07T10:12:44;98736.97;;;5.52;77.89
79671;BME280;69137;50.878;8.050;2024-03-07T10:15:10;98743.16;;;5.59;78.04
79671;BME280;69137;50.878;8.050;2024-03-07T10:17:38;98745.25;;;5.57;79.28
79671;BME280;69137;50.878;8.050;2024-03-07T10:20:04;98750.78;;;5.68;78.07
79671;BME280;69137;50.878;8.050;2024-03-07T10:22:35;98750.94;;;5.74;76.99
79671;BME280;69137;50.878;8.050;2024-03-07T10:25:03;98748.22;;;5.74;76.00
79671;BME280;69137;50.878;8.050;2024-03-07T10:27:28;98749.50;;;5.71;76.70
79671;BME280;69137;50.878;8.050;2024-03-07T10:29:54;98754.38;;;5.62;76.49
79671;BME280;69137;50.878;8.050;2024-03-07T10:32:20;98748.44;;;5.72;76.18
79671;BME280;69137;50.878;8.050;2024-03-07T10:34:46;98748.72;;;5.64;76.17
79671;BME280;69137;50.878;8.050;2024-03-07T10:37:13;98743.16;;;5.59;76.31
79671;BME280;69137;50.878;8.050;2024-03-07T10:39:45;98748.38;;;5.60;76.66
79671;BME280;69137;50.878;8.050;2024-03-07T10:42:16;98754.16;;;5.45;76.51
79671;BME280;69137;50.878;8.050;2024-03-07T10:44:44;98748.31;;;5.42;76.76
79671;BME280;69137;50.878;8.050;2024-03-07T10:47:15;98750.00;;;5.43;77.21
79671;BME280;69137;50.878;8.050;2024-03-07T10:49:53;98751.88;;;5.42;77.10
79671;BME280;69137;50.878;8.050;2024-03-07T10:52:35;98741.63;;;5.44;77.28
79671;BME280;69137;50.878;8.050;2024-03-07T10:57:59;98740.34;;;5.29;77.81
79671;BME280;69137;50.878;8.050;2024-03-07T11:00:27;98750.56;;;5.26;77.82
79671;BME280;69137;50.878;8.050;2024-03-07T11:03:01;98755.72;;;5.35;77.21
79671;BME280;69137;50.878;8.050;2024-03-07T11:05:28;98747.28;;;5.43;76.80
79671;BME280;69137;50.878;8.050;2024-03-07T11:07:58;98743.81;;;5.54;77.10
79671;BME280;69137;50.878;8.050;2024-03-07T11:10:25;98732.47;;;5.45;77.00
79671;BME280;69137;50.878;8.050;2024-03-07T11:12:50;98731.84;;;5.43;76.82
79671;BME280;69137;50.878;8.050;2024-03-07T11:15:17;98729.25;;;5.55;76.92
79671;BME280;69137;50.878;8.050;2024-03-07T11:17:46;98732.16;;;5.54;76.65
79671;BME280;69137;50.878;8.050;2024-03-07T11:20:26;98722.66;;;5.44;77.63
79671;BME280;69137;50.878;8.050;2024-03-07T11:22:52;98727.41;;;5.49;77.75
79671;BME280;69137;50.878;8.050;2024-03-07T11:25:22;98721.53;;;5.52;77.17
79671;BME280;69137;50.878;8.050;2024-03-07T11:27:59;98721.22;;;5.42;77.70
79671;BME280;69137;50.878;8.050;2024-03-07T11:30:24;98722.59;;;5.51;77.21
79671;BME280;69137;50.878;8.050;2024-03-07T11:32:51;98717.19;;;5.51;77.34
79671;BME280;69137;50.878;8.050;2024-03-07T11:35:20;98714.53;;;5.63;76.39
79671;BME280;69137;50.878;8.050;2024-03-07T11:37:57;98712.66;;;5.63;77.13
79671;BME280;69137;50.878;8.050;2024-03-07T11:42:50;98712.53;;;5.95;79.88
79671;BME280;69137;50.878;8.050;2024-03-07T11:45:17;98699.38;;;5.92;77.14
79671;BME280;69137;50.878;8.050;2024-03-07T11:47:54;98697.66;;;5.98;75.91
79671;BME280;69137;50.878;8.050;2024-03-07T11:50:32;98695.78;;;5.80;76.00
79671;BME280;69137;50.878;8.050;2024-03-07T11:53:00;98689.22;;;5.87;75.90
79671;BME280;69137;50.878;8.050;2024-03-07T11:55:26;98700.75;;;5.83;75.30
79671;BME280;69137;50.878;8.050;2024-03-07T11:57:53;98687.88;;;5.78;75.15
79671;BME280;69137;50.878;8.050;2024-03-07T12:00:19;98691.97;;;5.69;75.44
79671;BME280;69137;50.878;8.050;2024-03-07T12:02:46;98680.03;;;5.70;76.26
79671;BME280;69137;50.878;8.050;2024-03-07T12:05:14;98678.59;;;5.86;75.43
79671;BME280;69137;50.878;8.050;2024-03-07T12:07:41;98680.13;;;5.82;74.73
79671;BME280;69137;50.878;8.050;2024-03-07T12:10:07;98683.50;;;5.77;75.65
79671;BME280;69137;50.878;8.050;2024-03-07T12:12:33;98666.78;;;5.80;75.83
79671;BME280;69137;50.878;8.050;2024-03-07T12:14:59;98672.81;;;5.82;75.11
79671;BME280;69137;50.878;8.050;2024-03-07T12:17:24;98664.66;;;5.82;73.15
79671;BME280;69137;50.878;8.050;2024-03-07T12:19:50;98664.47;;;5.84;72.89
79671;BME280;69137;50.878;8.050;2024-03-07T12:22:19;98656.19;;;5.79;73.40
79671;BME280;69137;50.878;8.050;2024-03-07T12:24:59;98653.97;;;5.87;72.86
79671;BME280;69137;50.878;8.050;2024-03-07T12:27:27;98654.91;;;5.81;72.25
79671;BME280;69137;50.878;8.050;2024-03-07T12:29:53;98650.03;;;6.02;72.49
79671;BME280;69137;50.878;8.050;2024-03-07T12:32:19;98643.03;;;6.12;72.40
79671;BME280;69137;50.878;8.050;2024-03-07T12:34:44;98649.63;;;6.17;71.83
79671;BME280;69137;50.878;8.050;2024-03-07T12:37:13;98640.44;;;6.18;70.98
79671;BME280;69137;50.878;8.050;2024-03-07T12:39:45;98636.88;;;6.17;71.80
79671;BME280;69137;50.878;8.050;2024-03-07T12:42:17;98636.69;;;6.30;71.24
79671;BME280;69137;50.878;8.050;2024-03-07T12:44:44;98629.72;;;6.34;69.63
79671;BME280;69137;50.878;8.050;2024-03-07T12:47:13;98619.69;;;6.23;68.72
79671;BME280;69137;50.878;8.050;2024-03-07T12:49:45;98619.81;;;6.28;68.75
79671;BME280;69137;50.878;8.050;2024-03-07T12:52:11;98624.44;;;6.40;69.18
79671;BME280;69137;50.878;8.050;2024-03-07T12:54:40;98625.63;;;6.44;69.01
79671;BME280;69137;50.878;8.050;2024-03-07T12:57:10;98615.00;;;6.30;68.59
79671;BME280;69137;50.878;8.050;2024-03-07T12:59:36;98617.72;;;6.30;68.53
79671;BME280;69137;50.878;8.050;2024-03-07T13:02:11;98616.53;;;6.50;68.72
79671;BME280;69137;50.878;8.050;2024-03-07T13:04:37;98615.72;;;6.61;67.40
79671;BME280;69137;50.878;8.050;2024-03-07T13:07:06;98606.16;;;6.59;68.82
79671;BME280;69137;50.878;8.050;2024-03-07T13:09:32;98608.88;;;6.59;68.26
79671;BME280;69137;50.878;8.050;2024-03-07T13:11:58;98607.56;;;6.61;67.56
79671;BME280;69137;50.878;8.050;2024-03-07T13:14:26;98605.81;;;6.55;67.05